createdAt,value
2018-02-08T00:01:56.383Z,77.40
2018-02-08T00:04:24.712Z,78.00
2018-02-08T00:06:52.225Z,78.00
2018-02-08T00:09:20.565Z,78.00
2018-02-08T00:11:48.873Z,78.10
2018-02-08T00:14:17.214Z,78.20
2018-02-08T00:16:44.753Z,78.40
2018-02-08T00:19:12.311Z,78.10
2018-02-08T00:21:39.832Z,78.20
2018-02-08T00:24:07.368Z,78.20
2018-02-08T00:26:34.913Z,78.20
2018-02-08T00:29:02.453Z,78.20
2018-02-08T00:31:30.035Z,78.50
2018-02-08T00:33:57.566Z,77.60
2018-02-08T00:36:25.099Z,78.10
2018-02-08T00:38:52.637Z,78.20
2018-02-08T00:41:20.946Z,78.20
2018-02-08T00:43:48.482Z,78.10
2018-02-08T00:46:16.818Z,78.00
2018-02-08T00:48:44.384Z,77.90
2018-02-08T00:51:11.930Z,77.40
2018-02-08T00:53:39.510Z,77.60
2018-02-08T00:56:07.046Z,77.80
2018-02-08T01:01:08.591Z,78.10
2018-02-08T01:03:36.146Z,78.10
2018-02-08T01:06:03.720Z,78.00
2018-02-08T01:08:31.256Z,78.20
2018-02-08T01:10:58.808Z,78.20
2018-02-08T01:13:27.101Z,78.70
2018-02-08T01:15:54.639Z,78.80
2018-02-08T01:18:22.945Z,78.80
2018-02-08T01:20:50.497Z,78.70
2018-02-08T01:23:18.027Z,78.60
2018-02-08T01:25:46.350Z,78.90
2018-02-08T01:28:13.889Z,78.90
2018-02-08T01:30:41.503Z,78.60
2018-02-08T01:33:09.862Z,78.80
2018-02-08T01:35:37.393Z,78.70
2018-02-08T01:38:04.922Z,78.90
2018-02-08T01:40:32.470Z,78.80
2018-02-08T01:42:59.991Z,79.30
2018-02-08T01:45:27.534Z,78.70
2018-02-08T01:47:55.076Z,79.10
2018-02-08T01:50:22.643Z,78.80
2018-02-08T01:52:50.174Z,78.90
2018-02-08T01:55:17.693Z,78.30
2018-02-08T01:57:45.285Z,79.10
2018-02-08T02:02:46.959Z,78.90
2018-02-08T02:05:15.278Z,78.30
2018-02-08T02:07:42.829Z,78.20
2018-02-08T02:10:10.390Z,78.70
2018-02-08T02:12:37.974Z,78.70
2018-02-08T02:15:05.520Z,78.60
2018-02-08T02:17:33.062Z,79.10
2018-02-08T02:20:00.608Z,78.40
2018-02-08T02:22:28.924Z,78.50
2018-02-08T02:24:56.465Z,78.40
2018-02-08T02:27:24.032Z,78.40
2018-02-08T02:29:51.578Z,78.20
2018-02-08T02:32:19.919Z,78.20
2018-02-08T02:34:47.425Z,78.10
2018-02-08T02:37:15.046Z,77.90
2018-02-08T02:39:42.564Z,78.10
2018-02-08T02:42:10.112Z,77.80
2018-02-08T02:44:37.647Z,77.30
2018-02-08T02:47:05.235Z,77.40
2018-02-08T02:49:32.752Z,78.10
2018-02-08T02:52:00.280Z,78.40
2018-02-08T02:54:27.788Z,78.80
2018-02-08T02:56:56.103Z,78.20
2018-02-08T02:59:23.621Z,78.10
2018-02-08T03:01:51.928Z,78.90
2018-02-08T03:04:19.453Z,78.80
2018-02-08T03:06:47.788Z,77.70
2018-02-08T03:09:15.333Z,77.70
2018-02-08T03:11:42.844Z,77.90
2018-02-08T03:14:11.166Z,78.10
2018-02-08T03:16:38.692Z,78.10
2018-02-08T03:19:06.984Z,78.00
2018-02-08T03:21:34.524Z,77.70
2018-02-08T03:24:02.062Z,78.40
2018-02-08T03:26:30.395Z,78.40
2018-02-08T03:28:57.973Z,78.30
2018-02-08T03:31:26.113Z,78.30
2018-02-08T03:33:54.394Z,78.30
2018-02-08T03:36:21.902Z,78.40
2018-02-08T03:38:49.437Z,78.50
2018-02-08T03:41:16.975Z,78.80
2018-02-08T03:43:44.527Z,78.30
2018-02-08T03:46:12.068Z,78.50
2018-02-08T03:48:40.389Z,79.20
2018-02-08T03:51:07.918Z,79.20
2018-02-08T03:53:35.458Z,79.40
2018-02-08T03:56:03.809Z,79.10
2018-02-08T03:58:31.330Z,79.00
2018-02-08T04:00:58.862Z,78.90
2018-02-08T04:03:27.154Z,78.80
2018-02-08T04:05:54.688Z,78.80
2018-02-08T04:08:23.026Z,78.50
2018-02-08T04:10:51.304Z,78.30
2018-02-08T04:13:18.825Z,78.30
2018-02-08T04:15:46.343Z,78.40
2018-02-08T04:18:14.630Z,79.60
2018-02-08T04:20:42.932Z,78.90
2018-02-08T04:23:10.576Z,78.90
2018-02-08T04:25:38.917Z,78.80
2018-02-08T04:28:06.450Z,78.70
2018-02-08T04:30:33.991Z,79.30
2018-02-08T04:33:01.505Z,79.90
2018-02-08T04:35:29.049Z,80.10
2018-02-08T04:37:56.630Z,80.40
2018-02-08T04:40:36.017Z,80.20
2018-02-08T04:43:15.606Z,80.50
2018-02-08T04:45:54.985Z,80.10
2018-02-08T04:48:22.526Z,79.90
2018-02-08T04:50:50.059Z,80.10
2018-02-08T04:53:17.613Z,80.20
2018-02-08T04:55:45.165Z,80.40
2018-02-08T04:58:12.745Z,80.40
2018-02-08T05:00:40.334Z,80.40
2018-02-08T05:03:08.622Z,80.50
2018-02-08T05:05:36.190Z,80.50
2018-02-08T05:08:03.757Z,80.40
2018-02-08T05:10:31.284Z,80.10
2018-02-08T05:12:59.620Z,80.50
2018-02-08T05:15:27.153Z,79.80
2018-02-08T05:17:54.672Z,79.60
2018-02-08T05:20:23.012Z,79.60
2018-02-08T05:22:50.561Z,79.60
2018-02-08T05:25:18.114Z,79.70
2018-02-08T05:27:45.637Z,80.00
2018-02-08T05:30:13.952Z,80.30
2018-02-08T05:32:41.491Z,80.20
2018-02-08T05:35:09.030Z,80.40
2018-02-08T05:37:37.306Z,79.40
2018-02-08T05:40:05.598Z,79.20
2018-02-08T05:42:33.137Z,79.20
2018-02-08T05:45:03.979Z,79.00
2018-02-08T05:47:32.281Z,79.00
2018-02-08T05:49:59.815Z,78.90
2018-02-08T05:52:28.083Z,78.70
2018-02-08T05:54:55.651Z,78.70
2018-02-08T05:57:23.942Z,79.20
2018-02-08T05:59:52.226Z,79.30
2018-02-08T06:02:19.930Z,79.30
2018-02-08T06:04:47.481Z,79.30
2018-02-08T06:07:15.022Z,79.10
2018-02-08T06:09:42.601Z,78.80
2018-02-08T06:12:10.104Z,79.10
2018-02-08T06:14:38.385Z,79.70
2018-02-08T06:17:06.737Z,79.60
2018-02-08T06:19:34.252Z,79.50
2018-02-08T06:22:01.755Z,79.40
2018-02-08T06:24:30.058Z,78.60
2018-02-08T06:26:58.359Z,79.20
2018-02-08T06:29:26.094Z,79.10
2018-02-08T06:31:53.687Z,79.40
2018-02-08T06:34:21.188Z,79.50
2018-02-08T06:36:49.073Z,79.40
2018-02-08T06:39:16.536Z,79.80
2018-02-08T06:41:45.377Z,80.10
2018-02-08T06:44:12.858Z,80.10
2018-02-08T06:46:40.531Z,80.10
2018-02-08T06:49:08.007Z,79.90
2018-02-08T06:51:36.285Z,79.90
2018-02-08T06:54:03.805Z,79.90
2018-02-08T06:56:31.341Z,80.00
2018-02-08T06:58:58.848Z,80.00
2018-02-08T07:01:27.150Z,81.20
2018-02-08T07:03:54.612Z,80.60
2018-02-08T07:06:22.163Z,80.70
2018-02-08T07:08:49.701Z,80.40
2018-02-08T07:11:17.214Z,80.10
2018-02-08T07:13:44.734Z,80.20
2018-02-08T07:16:12.285Z,79.80
2018-02-08T07:18:40.600Z,79.20
2018-02-08T07:21:08.137Z,79.20
2018-02-08T07:23:36.420Z,79.10
2018-02-08T07:26:03.954Z,78.90
2018-02-08T07:28:32.261Z,78.70
2018-02-08T07:30:59.799Z,79.40
2018-02-08T07:33:28.122Z,79.10
2018-02-08T07:35:55.650Z,79.00
2018-02-08T07:38:23.201Z,78.80
2018-02-08T07:40:50.742Z,78.80
2018-02-08T07:43:19.044Z,79.80
2018-02-08T07:45:46.598Z,79.00
2018-02-08T07:48:14.189Z,79.30
2018-02-08T07:50:41.733Z,79.30
2018-02-08T07:53:09.284Z,79.20
2018-02-08T07:55:36.806Z,78.90
2018-02-08T07:58:04.365Z,78.30
2018-02-08T08:00:31.906Z,78.70
2018-02-08T08:02:59.452Z,79.00
2018-02-08T08:05:27.006Z,78.70
2018-02-08T08:07:54.592Z,78.10
2018-02-08T08:10:22.120Z,78.60
2018-02-08T08:12:49.669Z,78.20
2018-02-08T08:15:17.217Z,77.40
2018-02-08T08:17:44.779Z,77.60
2018-02-08T08:20:12.393Z,77.70
2018-02-08T08:22:39.937Z,78.10
2018-02-08T08:25:07.457Z,77.90
2018-02-08T08:27:35.025Z,77.70
2018-02-08T08:30:02.620Z,78.00
2018-02-08T08:32:30.118Z,78.10
2018-02-08T08:34:57.682Z,78.00
2018-02-08T08:37:25.975Z,77.60
2018-02-08T08:39:53.566Z,77.60
2018-02-08T08:42:21.130Z,77.40
2018-02-08T08:44:48.676Z,77.60
2018-02-08T08:47:16.235Z,77.00
2018-02-08T08:49:43.749Z,76.60
2018-02-08T08:52:11.304Z,77.00
2018-02-08T08:54:38.825Z,76.70
2018-02-08T08:57:06.473Z,76.50
2018-02-08T08:59:34.027Z,75.90
2018-02-08T09:02:01.605Z,74.60
2018-02-08T09:04:29.203Z,74.50
2018-02-08T09:06:56.736Z,74.30
2018-02-08T09:09:24.301Z,73.90
2018-02-08T09:11:51.877Z,73.10
2018-02-08T09:14:19.734Z,71.80
2018-02-08T09:16:47.266Z,71.80
2018-02-08T09:19:15.721Z,71.00
2018-02-08T09:21:43.262Z,70.10
2018-02-08T09:24:11.549Z,69.40
2018-02-08T09:26:39.070Z,69.40
2018-02-08T09:29:06.632Z,68.90
2018-02-08T09:31:34.216Z,68.10
2018-02-08T09:34:02.565Z,69.60
2018-02-08T09:36:30.094Z,69.60
2018-02-08T09:38:58.358Z,69.00
2018-02-08T09:41:25.977Z,69.00
2018-02-08T09:43:53.462Z,67.00
2018-02-08T09:46:21.744Z,68.90
2018-02-08T09:48:49.290Z,68.90
2018-02-08T09:51:17.551Z,67.70
2018-02-08T09:53:45.162Z,67.60
2018-02-08T09:56:12.760Z,68.60
2018-02-08T09:58:40.826Z,69.40
2018-02-08T10:01:08.345Z,70.20
2018-02-08T10:03:35.850Z,70.30
2018-02-08T10:06:03.364Z,71.10
2018-02-08T10:08:30.902Z,70.10
2018-02-08T10:10:58.446Z,71.70
2018-02-08T10:13:26.712Z,69.20
2018-02-08T10:15:54.218Z,69.20
2018-02-08T10:18:21.694Z,69.60
2018-02-08T10:20:49.192Z,69.00
2018-02-08T10:23:17.473Z,70.10
2018-02-08T10:25:45.015Z,70.00
2018-02-08T10:28:13.313Z,70.00
2018-02-08T10:30:41.613Z,69.70
2018-02-08T10:33:09.132Z,69.70
2018-02-08T10:35:37.466Z,69.90
2018-02-08T10:38:04.962Z,69.90
2018-02-08T10:40:34.568Z,71.00
2018-02-08T10:43:02.132Z,71.80
2018-02-08T10:45:29.675Z,70.70
2018-02-08T10:47:57.154Z,67.60
2018-02-08T10:50:24.716Z,68.80
2018-02-08T10:52:53.013Z,69.10
2018-02-08T10:55:20.544Z,69.10
2018-02-08T10:57:48.061Z,67.60
2018-02-08T11:00:15.620Z,67.00
2018-02-08T11:02:43.108Z,66.90
2018-02-08T11:05:10.598Z,67.70
2018-02-08T11:07:38.971Z,65.20
2018-02-08T11:10:07.196Z,67.10
2018-02-08T11:12:34.708Z,67.00
2018-02-08T11:15:02.980Z,66.60
2018-02-08T11:17:31.306Z,65.00
2018-02-08T11:19:58.809Z,64.70
2018-02-08T11:22:27.169Z,65.00
2018-02-08T11:24:54.773Z,64.90
2018-02-08T11:27:23.406Z,66.30
2018-02-08T11:29:54.969Z,64.70
2018-02-08T11:32:22.553Z,63.70
2018-02-08T11:34:50.868Z,59.70
2018-02-08T11:37:18.449Z,59.60
2018-02-08T11:39:45.953Z,62.00
2018-02-08T11:42:14.313Z,63.80
2018-02-08T11:44:41.849Z,63.70
2018-02-08T11:47:09.393Z,64.30
2018-02-08T11:49:36.913Z,63.10
2018-02-08T11:52:04.415Z,65.30
2018-02-08T11:54:31.965Z,66.00
2018-02-08T11:56:59.494Z,66.80
2018-02-08T11:59:27.845Z,65.10
2018-02-08T12:01:55.384Z,65.00
2018-02-08T12:06:57.660Z,63.40
2018-02-08T12:09:25.194Z,62.90
2018-02-08T12:11:52.753Z,65.80
2018-02-08T12:14:20.273Z,67.70
2018-02-08T12:16:47.776Z,65.60
2018-02-08T12:19:16.151Z,65.00
2018-02-08T12:21:43.737Z,64.30
2018-02-08T12:24:11.247Z,64.20
2018-02-08T12:26:39.467Z,64.20
2018-02-08T12:29:07.123Z,64.30
2018-02-08T12:31:34.748Z,66.10
2018-02-08T12:34:03.007Z,65.20
2018-02-08T12:36:30.469Z,65.10
2018-02-08T12:38:58.722Z,65.50
2018-02-08T12:41:26.214Z,65.40
2018-02-08T12:43:54.474Z,65.40
2018-02-08T12:46:21.937Z,65.40
2018-02-08T12:48:50.194Z,66.80
2018-02-08T12:51:17.683Z,66.00
2018-02-08T12:53:45.218Z,66.00
2018-02-08T12:56:12.709Z,64.80
2018-02-08T12:58:40.225Z,65.70
2018-02-08T13:01:07.737Z,65.50
2018-02-08T13:03:35.270Z,64.90
2018-02-08T13:06:03.575Z,66.80
2018-02-08T13:08:31.082Z,66.80
2018-02-08T13:10:58.608Z,66.90
2018-02-08T13:13:26.154Z,66.70
2018-02-08T13:15:53.686Z,67.20
2018-02-08T13:18:21.962Z,66.70
2018-02-08T13:20:50.228Z,65.10
2018-02-08T13:23:18.571Z,66.10
2018-02-08T13:25:46.133Z,66.10
2018-02-08T13:28:13.673Z,65.40
2018-02-08T13:30:41.197Z,67.10
2018-02-08T13:33:08.744Z,66.70
2018-02-08T13:35:36.310Z,66.40
2018-02-08T13:38:04.590Z,67.40
2018-02-08T13:40:33.676Z,67.40
2018-02-08T13:43:01.989Z,66.80
2018-02-08T13:45:32.418Z,66.70
2018-02-08T13:47:59.956Z,67.30
2018-02-08T14:14:49.409Z,65.00
2018-02-08T14:17:16.977Z,66.10
2018-02-08T14:19:44.800Z,65.10
2018-02-08T14:22:12.355Z,64.20
2018-02-08T14:24:39.933Z,64.80
2018-02-08T14:27:08.473Z,65.40
2018-02-08T14:29:36.068Z,66.00
2018-02-08T14:32:04.478Z,64.40
2018-02-08T14:34:32.014Z,64.00
2018-02-08T14:37:00.376Z,64.10
2018-02-08T14:39:27.913Z,64.10
2018-02-08T14:42:15.684Z,64.80
2018-02-08T14:44:55.045Z,65.60
2018-02-08T14:47:23.306Z,65.40
2018-02-08T14:49:51.655Z,66.30
2018-02-08T14:52:19.218Z,66.20
2018-02-08T14:54:47.517Z,65.80
2018-02-08T14:57:15.847Z,66.80
2018-02-08T14:59:43.380Z,66.80
2018-02-08T15:02:10.950Z,65.80
2018-02-08T15:04:38.491Z,66.30
2018-02-08T15:07:06.044Z,65.40
2018-02-08T15:09:33.631Z,65.70
2018-02-08T15:12:01.165Z,65.30
2018-02-08T15:14:28.711Z,65.80
2018-02-08T15:16:57.030Z,66.50
2018-02-08T15:19:24.631Z,66.60
2018-02-08T15:21:52.976Z,65.60
2018-02-08T15:24:20.537Z,65.60
2018-02-08T15:26:48.100Z,66.20
2018-02-08T15:29:16.422Z,66.80
2018-02-08T15:31:44.013Z,66.80
2018-02-08T15:34:11.551Z,65.70
2018-02-08T15:36:39.109Z,65.70
2018-02-08T15:39:06.645Z,66.10
2018-02-08T15:41:34.209Z,65.10
2018-02-08T15:44:02.515Z,65.20
2018-02-08T15:46:30.077Z,65.20
2018-02-08T15:48:57.582Z,65.60
2018-02-08T15:51:25.128Z,66.10
2018-02-08T15:53:52.631Z,65.00
2018-02-08T15:56:20.981Z,65.00
2018-02-08T15:58:48.517Z,65.00
2018-02-08T16:01:26.778Z,66.50
2018-02-08T16:03:54.325Z,65.20
2018-02-08T16:06:22.641Z,65.60
2018-02-08T16:08:50.161Z,65.60
2018-02-08T16:11:17.690Z,64.80
2018-02-08T16:13:45.230Z,65.20
2018-02-08T16:16:12.757Z,66.40
2018-02-08T16:18:41.052Z,65.40
2018-02-08T16:21:08.571Z,65.40
2018-02-08T16:23:36.108Z,66.80
2018-02-08T16:26:03.625Z,65.40
2018-02-08T16:28:31.168Z,65.80
2018-02-08T16:30:59.480Z,65.70
2018-02-08T16:33:27.002Z,65.70
2018-02-08T16:35:55.397Z,65.80
2018-02-08T16:38:22.976Z,65.80
2018-02-08T16:40:50.544Z,65.50
2018-02-08T16:43:18.075Z,66.80
2018-02-08T16:45:45.599Z,66.60
2018-02-08T16:48:13.135Z,66.30
2018-02-08T16:50:40.666Z,66.60
2018-02-08T16:53:08.182Z,66.10
2018-02-08T16:55:35.683Z,66.60
2018-02-08T16:58:03.212Z,66.50
2018-02-08T17:03:06.137Z,66.90
2018-02-08T17:05:33.766Z,66.90
2018-02-08T17:08:02.066Z,67.80
2018-02-08T17:10:29.611Z,67.70
2018-02-08T17:13:15.041Z,66.40
2018-02-08T17:15:54.983Z,66.80
2018-02-08T17:18:24.131Z,66.60
2018-02-08T17:20:51.684Z,67.20
2018-02-08T17:23:22.280Z,66.00
2018-02-08T17:26:00.874Z,65.90
2018-02-08T17:31:05.777Z,67.00
2018-02-08T17:33:36.291Z,66.90
2018-02-08T17:36:07.432Z,66.50
2018-02-08T17:38:36.790Z,66.60
2018-02-08T17:41:05.474Z,66.10
2018-02-08T17:43:33.164Z,67.00
2018-02-08T17:46:03.130Z,66.60
2018-02-08T17:48:31.505Z,65.50
2018-02-08T17:50:59.834Z,66.50
2018-02-08T17:53:27.478Z,66.50
2018-02-08T17:55:57.765Z,66.30
2018-02-08T18:01:31.133Z,66.00
2018-02-08T18:06:37.702Z,65.50
2018-02-08T18:09:05.232Z,65.40
2018-02-08T18:11:47.051Z,65.70
2018-02-08T18:14:14.613Z,65.70
2018-02-08T18:16:42.185Z,65.30
2018-02-08T18:19:09.945Z,65.40
2018-02-08T18:21:37.618Z,66.20
2018-02-08T18:24:05.301Z,66.60
2018-02-08T18:26:32.972Z,66.80
2018-02-08T18:29:00.563Z,66.50
2018-02-08T18:31:28.213Z,66.50
2018-02-08T18:33:56.613Z,67.30
2018-02-08T18:36:24.216Z,67.30
2018-02-08T18:38:51.820Z,66.80
2018-02-08T18:41:20.254Z,66.80
2018-02-08T18:43:48.708Z,66.70
2018-02-08T18:46:23.829Z,66.50
2018-02-08T18:48:52.170Z,67.50
2018-02-08T18:51:19.767Z,67.40
2018-02-08T18:53:47.315Z,67.60
2018-02-08T18:56:15.609Z,67.40
2018-02-08T18:58:43.175Z,67.30
2018-02-08T19:03:44.562Z,67.20
2018-02-08T19:06:12.101Z,67.50
2018-02-08T19:08:39.622Z,67.50
2018-02-08T19:11:07.140Z,67.60
2018-02-08T19:13:34.694Z,66.80
2018-02-08T19:16:02.250Z,67.60
2018-02-08T19:18:29.773Z,67.70
2018-02-08T19:20:58.079Z,66.40
2018-02-08T19:23:25.605Z,66.40
2018-02-08T19:25:53.924Z,67.40
2018-02-08T19:28:21.479Z,67.30
2018-02-08T19:30:49.021Z,67.20
2018-02-08T19:33:16.546Z,66.30
2018-02-08T19:35:44.113Z,66.30
2018-02-08T19:38:12.425Z,66.60
2018-02-08T19:40:39.998Z,66.50
2018-02-08T19:43:07.555Z,67.10
2018-02-08T19:45:35.157Z,67.00
2018-02-08T19:48:02.689Z,66.80
2018-02-08T19:50:30.226Z,66.30
2018-02-08T19:52:57.806Z,67.40
2018-02-08T19:55:25.361Z,67.60
2018-02-08T19:57:52.905Z,67.50
2018-02-08T20:00:20.453Z,66.90
2018-02-08T20:02:48.015Z,67.20
2018-02-08T20:05:15.570Z,67.80
2018-02-08T20:07:43.870Z,67.80
2018-02-08T20:10:11.671Z,67.80
2018-02-08T20:12:39.233Z,67.40
2018-02-08T20:15:06.808Z,65.30
2018-02-08T20:17:34.337Z,67.20
2018-02-08T20:20:01.899Z,67.60
2018-02-08T20:22:29.461Z,67.40
2018-02-08T20:24:57.025Z,67.00
2018-02-08T20:27:24.554Z,66.80
2018-02-08T20:29:52.103Z,66.70
2018-02-08T20:32:19.630Z,66.30
2018-02-08T20:34:47.921Z,67.90
2018-02-08T20:37:16.256Z,66.90
2018-02-08T20:39:43.790Z,66.80
2018-02-08T20:42:17.070Z,67.70
2018-02-08T20:44:44.615Z,67.30
2018-02-08T20:49:52.045Z,68.90
2018-02-08T20:52:19.576Z,68.10
2018-02-08T20:54:47.877Z,68.40
2018-02-08T20:57:15.441Z,68.30
2018-02-08T20:59:43.019Z,68.30
2018-02-08T21:02:10.617Z,68.60
2018-02-08T21:04:38.978Z,68.30
2018-02-08T21:07:07.492Z,68.50
2018-02-08T21:09:35.913Z,68.50
2018-02-08T21:12:03.458Z,68.50
2018-02-08T21:14:31.033Z,69.30
2018-02-08T21:17:09.423Z,68.10
2018-02-08T21:19:37.842Z,68.80
2018-02-08T21:22:05.430Z,69.00
2018-02-08T21:24:33.744Z,68.80
2018-02-08T21:27:01.264Z,68.60
2018-02-08T21:29:29.003Z,68.60
2018-02-08T21:31:56.548Z,68.60
2018-02-08T21:34:24.109Z,68.60
2018-02-08T21:36:51.643Z,68.10
2018-02-08T21:39:19.227Z,68.80
2018-02-08T21:41:46.785Z,67.60
2018-02-08T21:44:14.352Z,68.60
2018-02-08T21:46:41.907Z,68.80
2018-02-08T21:49:09.412Z,68.80
2018-02-08T21:51:37.758Z,68.80
2018-02-08T21:54:06.061Z,68.70
2018-02-08T21:56:33.646Z,68.60
2018-02-08T21:59:01.176Z,68.20
2018-02-08T22:01:28.714Z,68.80
2018-02-08T22:03:56.258Z,69.50
2018-02-08T22:06:23.829Z,69.40
2018-02-08T22:08:51.373Z,69.80
2018-02-08T22:11:18.929Z,69.40
2018-02-08T22:13:46.445Z,69.60
2018-02-08T22:16:14.757Z,69.20
2018-02-08T22:18:42.280Z,69.00
2018-02-08T22:21:10.591Z,69.30
2018-02-08T22:23:38.114Z,69.30
2018-02-08T22:26:05.652Z,69.70
2018-02-08T22:28:35.965Z,70.20
2018-02-08T22:31:03.512Z,70.10
2018-02-08T22:33:31.033Z,70.20
2018-02-08T22:36:36.178Z,71.20
2018-02-08T22:39:07.564Z,71.10
2018-02-08T22:41:35.152Z,70.50
2018-02-08T22:44:02.932Z,70.20
2018-02-08T22:46:31.221Z,70.40
2018-02-08T22:48:59.540Z,70.70
